createdAt,value
2019-02-12T00:00:49.910Z,5.43
2019-02-12T00:01:49.872Z,5.48
2019-02-12T00:02:49.889Z,5.47
2019-02-12T00:03:49.857Z,5.59
2019-02-12T00:04:49.848Z,5.53
2019-02-12T00:05:49.837Z,5.53
2019-02-12T00:06:49.820Z,5.53
2019-02-12T00:07:49.834Z,5.56
2019-02-12T00:08:49.804Z,5.47
2019-02-12T00:09:49.793Z,5.57
2019-02-12T00:10:49.781Z,5.59
2019-02-12T00:11:49.767Z,5.64
2019-02-12T00:12:49.783Z,5.75
2019-02-12T00:13:49.748Z,5.64
2019-02-12T00:14:49.746Z,5.73
2019-02-12T00:15:49.735Z,5.61
2019-02-12T00:16:49.719Z,5.71
2019-02-12T00:17:49.731Z,5.68
2019-02-12T00:18:49.701Z,5.69
2019-02-12T00:19:49.686Z,5.68
2019-02-12T00:20:49.674Z,5.64
2019-02-12T00:21:49.663Z,5.73
2019-02-12T00:22:49.692Z,5.65
2019-02-12T00:23:49.648Z,5.64
2019-02-12T00:24:49.632Z,5.65
2019-02-12T00:25:49.622Z,5.66
2019-02-12T00:26:49.619Z,5.71
2019-02-12T00:27:49.627Z,5.66
2019-02-12T00:28:49.607Z,5.71
2019-02-12T00:29:49.594Z,5.68
2019-02-12T00:30:49.569Z,5.57
2019-02-12T00:31:49.557Z,5.61
2019-02-12T00:32:49.572Z,5.56
2019-02-12T00:33:49.537Z,5.56
2019-02-12T00:34:49.536Z,5.54
2019-02-12T00:35:49.521Z,5.54
2019-02-12T00:36:49.510Z,5.56
2019-02-12T00:37:49.546Z,5.59
2019-02-12T00:38:49.488Z,5.57
2019-02-12T00:39:49.475Z,5.47
2019-02-12T00:40:49.474Z,5.51
2019-02-12T00:41:49.458Z,5.56
2019-02-12T00:42:49.441Z,5.59
2019-02-12T00:43:49.460Z,5.57
2019-02-12T00:44:49.427Z,5.62
2019-02-12T00:45:49.450Z,5.43
2019-02-12T00:46:49.407Z,5.50
2019-02-12T00:47:49.396Z,5.56
2019-02-12T00:48:49.386Z,5.62
2019-02-12T00:49:49.377Z,5.46
2019-02-12T00:50:49.359Z,5.46
2019-02-12T00:51:49.371Z,5.48
2019-02-12T00:52:49.338Z,5.38
2019-02-12T00:53:49.332Z,5.44
2019-02-12T00:54:49.325Z,5.38
2019-02-12T00:55:49.334Z,5.38
2019-02-12T00:56:49.296Z,5.44
2019-02-12T00:57:49.282Z,5.38
2019-02-12T00:58:49.280Z,5.36
2019-02-12T00:59:49.293Z,5.38
2019-02-12T01:00:49.283Z,5.41
2019-02-12T01:01:49.249Z,5.30
2019-02-12T01:02:49.233Z,5.26
2019-02-12T01:03:49.223Z,5.32
2019-02-12T01:04:49.214Z,5.25
2019-02-12T01:05:49.223Z,5.26
2019-02-12T01:06:49.193Z,5.21
2019-02-12T01:07:49.183Z,5.26
2019-02-12T01:08:49.173Z,5.30
2019-02-12T01:09:49.163Z,5.28
2019-02-12T01:10:49.173Z,5.26
2019-02-12T01:11:49.134Z,5.21
2019-02-12T01:12:49.132Z,5.26
2019-02-12T01:13:49.138Z,5.20
2019-02-12T01:14:49.107Z,5.18
2019-02-12T01:15:49.122Z,5.15
2019-02-12T01:16:49.081Z,5.14
2019-02-12T01:17:49.073Z,5.12
2019-02-12T01:18:49.069Z,5.04
2019-02-12T01:19:49.059Z,5.07
2019-02-12T01:20:49.078Z,5.14
2019-02-12T01:21:49.036Z,5.07
2019-02-12T01:22:49.020Z,5.11
2019-02-12T01:23:49.011Z,5.14
2019-02-12T01:24:48.999Z,5.11
2019-02-12T01:25:48.987Z,5.14
2019-02-12T01:26:49.004Z,5.23
2019-02-12T01:27:48.974Z,5.18
2019-02-12T01:28:48.956Z,5.12
2019-02-12T01:29:48.946Z,5.20
2019-02-12T01:30:48.961Z,5.14
2019-02-12T01:31:48.955Z,5.17
2019-02-12T01:32:48.923Z,5.23
2019-02-12T01:33:48.906Z,5.15
2019-02-12T01:34:48.892Z,5.20
2019-02-12T01:35:48.881Z,5.26
2019-02-12T01:36:48.893Z,5.26
2019-02-12T01:37:48.864Z,5.29
2019-02-12T01:38:48.861Z,5.25
2019-02-12T01:39:48.848Z,5.23
2019-02-12T01:40:48.833Z,5.14
2019-02-12T01:41:48.849Z,5.18
2019-02-12T01:42:48.806Z,5.21
2019-02-12T01:43:48.829Z,5.23
2019-02-12T01:44:48.826Z,5.21
2019-02-12T01:45:48.789Z,5.17
2019-02-12T01:46:48.762Z,5.18
2019-02-12T01:47:48.752Z,5.29
2019-02-12T01:48:48.898Z,5.23
2019-02-12T01:49:48.766Z,5.25
2019-02-12T01:50:48.773Z,5.30
2019-02-12T01:51:49.270Z,5.36
2019-02-12T01:52:48.713Z,5.33
2019-02-12T01:53:48.696Z,5.26
2019-02-12T01:54:48.709Z,5.33
2019-02-12T01:55:48.672Z,5.43
2019-02-12T01:56:48.663Z,5.33
2019-02-12T01:57:48.650Z,5.43
2019-02-12T01:58:48.681Z,5.43
2019-02-12T01:59:48.634Z,5.33
2019-02-12T02:00:48.616Z,5.44
2019-02-12T02:01:48.632Z,5.41
2019-02-12T02:02:48.606Z,5.48
2019-02-12T02:03:48.596Z,5.51
2019-02-12T02:04:48.637Z,5.39
2019-02-12T02:05:48.574Z,5.51
2019-02-12T02:07:02.428Z,5.53
2019-02-12T02:07:48.543Z,5.54
2019-02-12T02:08:48.536Z,5.59
2019-02-12T02:09:48.605Z,5.44
2019-02-12T02:10:48.517Z,5.50
2019-02-12T02:11:48.538Z,5.50
2019-02-12T02:12:48.497Z,5.51
2019-02-12T02:13:48.487Z,5.39
2019-02-12T02:14:48.475Z,5.51
2019-02-12T02:15:48.477Z,5.44
2019-02-12T02:16:48.460Z,5.54
2019-02-12T02:17:48.468Z,5.48
2019-02-12T02:18:48.499Z,5.47
2019-02-12T02:19:48.416Z,5.51
2019-02-12T02:20:48.413Z,5.56
2019-02-12T02:21:48.401Z,5.50
2019-02-12T02:22:48.393Z,5.57
2019-02-12T02:23:48.406Z,5.50
2019-02-12T02:24:48.364Z,5.44
2019-02-12T02:25:48.352Z,5.35
2019-02-12T02:26:48.365Z,5.30
2019-02-12T02:27:48.330Z,5.35
2019-02-12T02:28:48.351Z,5.36
2019-02-12T02:29:48.317Z,5.41
2019-02-12T02:30:48.302Z,5.46
2019-02-12T02:31:48.289Z,5.48
2019-02-12T02:32:48.284Z,5.54
2019-02-12T02:33:48.310Z,5.53
2019-02-12T02:34:48.263Z,5.50
2019-02-12T02:35:48.254Z,5.47
2019-02-12T02:36:48.244Z,5.50
2019-02-12T02:37:48.226Z,5.48
2019-02-12T02:38:48.233Z,5.59
2019-02-12T02:39:48.228Z,5.57
2019-02-12T02:40:48.200Z,5.48
2019-02-12T02:41:48.194Z,5.47
2019-02-12T02:42:48.183Z,5.59
2019-02-12T02:43:48.168Z,5.50
2019-02-12T02:44:48.174Z,5.57
2019-02-12T02:45:48.144Z,5.48
2019-02-12T02:46:48.138Z,5.47
2019-02-12T02:47:48.128Z,5.47
2019-02-12T02:48:48.132Z,5.56
2019-02-12T02:49:48.133Z,5.57
2019-02-12T02:50:48.091Z,5.54
2019-02-12T02:51:53.963Z,5.64
2019-02-12T02:52:49.073Z,5.62
2019-02-12T02:53:48.064Z,5.53
2019-02-12T02:54:48.054Z,5.64
2019-02-12T02:55:48.082Z,5.64
2019-02-12T02:56:48.021Z,5.64
2019-02-12T02:57:48.016Z,5.65
2019-02-12T02:58:48.049Z,5.62
2019-02-12T02:59:47.993Z,5.54
2019-02-12T03:00:48.016Z,5.59
2019-02-12T03:01:47.977Z,5.51
2019-02-12T03:02:47.961Z,5.51
2019-02-12T03:03:47.964Z,5.46
2019-02-12T03:04:47.947Z,5.48
2019-02-12T03:05:47.937Z,5.43
2019-02-12T03:06:47.950Z,5.43
2019-02-12T03:07:47.918Z,5.39
2019-02-12T03:08:47.934Z,5.30
2019-02-12T03:09:47.887Z,5.33
2019-02-12T03:10:47.893Z,5.28
2019-02-12T03:11:47.899Z,5.35
2019-02-12T03:12:47.864Z,5.29
2019-02-12T03:13:47.851Z,5.29
2019-02-12T03:14:47.843Z,5.38
2019-02-12T03:15:47.834Z,5.38
2019-02-12T03:16:47.812Z,5.39
2019-02-12T03:17:47.832Z,5.41
2019-02-12T03:18:47.800Z,5.41
2019-02-12T03:19:47.843Z,5.33
2019-02-12T03:20:47.773Z,5.38
2019-02-12T03:21:47.782Z,5.35
2019-02-12T03:22:47.750Z,5.30
2019-02-12T03:23:47.743Z,5.33
2019-02-12T03:24:47.737Z,5.32
2019-02-12T03:25:47.731Z,5.28
2019-02-12T03:26:47.746Z,5.21
2019-02-12T03:27:47.726Z,5.20
2019-02-12T03:28:47.693Z,5.15
2019-02-12T03:29:47.678Z,5.15
2019-02-12T03:30:47.677Z,5.15
2019-02-12T03:31:47.659Z,5.11
2019-02-12T03:32:47.693Z,5.08
2019-02-12T03:33:47.642Z,5.07
2019-02-12T03:34:47.630Z,5.07
2019-02-12T03:35:47.613Z,5.07
2019-02-12T03:36:47.607Z,4.99
2019-02-12T03:37:47.600Z,4.94
2019-02-12T03:38:47.611Z,5.02
2019-02-12T03:39:47.577Z,4.90
2019-02-12T03:40:47.563Z,4.92
2019-02-12T03:41:47.565Z,4.89
2019-02-12T03:42:47.544Z,4.90
2019-02-12T03:43:47.554Z,4.96
2019-02-12T03:44:47.543Z,4.92
2019-02-12T03:45:47.514Z,5.00
2019-02-12T03:46:47.505Z,4.97
2019-02-12T03:47:47.489Z,4.94
2019-02-12T03:48:47.506Z,4.97
2019-02-12T03:49:47.464Z,4.92
2019-02-12T03:50:47.458Z,4.84
2019-02-12T03:51:47.449Z,4.89
2019-02-12T03:52:47.441Z,4.99
2019-02-12T03:53:47.422Z,4.86
2019-02-12T03:54:47.433Z,4.89
2019-02-12T03:55:47.400Z,4.92
2019-02-12T03:56:47.398Z,4.90
2019-02-12T03:57:47.382Z,4.90
2019-02-12T03:58:47.376Z,4.90
2019-02-12T03:59:47.390Z,4.86
2019-02-12T04:00:47.358Z,4.87
2019-02-12T04:01:47.416Z,4.78
2019-02-12T04:02:47.333Z,4.77
2019-02-12T04:03:47.321Z,4.75
2019-02-12T04:04:47.328Z,4.74
2019-02-12T04:05:47.305Z,4.77
2019-02-12T04:06:47.290Z,4.67
2019-02-12T04:07:47.286Z,4.66
2019-02-12T04:08:47.262Z,4.56
2019-02-12T04:09:47.305Z,4.58
2019-02-12T04:10:47.261Z,4.67
2019-02-12T04:11:47.231Z,4.60
2019-02-12T04:12:47.232Z,4.60
2019-02-12T04:13:47.214Z,4.68
2019-02-12T04:14:47.204Z,4.62
2019-02-12T04:15:47.219Z,4.58
2019-02-12T04:16:47.187Z,4.60
2019-02-12T04:17:47.166Z,4.59
2019-02-12T04:18:47.158Z,4.66
2019-02-12T04:19:47.145Z,4.55
2019-02-12T04:20:47.162Z,4.60
2019-02-12T04:21:47.159Z,4.55
2019-02-12T04:22:47.135Z,4.58
2019-02-12T04:23:47.114Z,4.60
2019-02-12T04:24:47.101Z,4.66
2019-02-12T04:25:47.114Z,4.62
2019-02-12T04:26:47.079Z,4.67
2019-02-12T04:27:47.069Z,4.73
2019-02-12T04:28:47.052Z,4.74
2019-02-12T04:29:47.039Z,4.70
2019-02-12T04:30:47.058Z,4.77
2019-02-12T04:31:47.022Z,4.80
2019-02-12T04:32:47.042Z,4.71
2019-02-12T04:33:47.003Z,4.75
2019-02-12T04:34:46.995Z,4.80
2019-02-12T04:35:46.992Z,4.67
2019-02-12T04:36:46.966Z,4.73
2019-02-12T04:37:46.957Z,4.73
2019-02-12T04:38:46.970Z,4.70
2019-02-12T04:39:46.940Z,4.70
2019-02-12T04:40:46.923Z,4.66
2019-02-12T04:41:46.936Z,4.67
2019-02-12T04:42:46.902Z,4.74
2019-02-12T04:43:46.926Z,4.63
2019-02-12T04:44:46.889Z,4.74
2019-02-12T04:45:46.878Z,4.70
2019-02-12T04:46:46.865Z,4.74
2019-02-12T04:47:46.892Z,4.75
2019-02-12T04:48:46.839Z,4.86
2019-02-12T04:49:46.827Z,4.73
2019-02-12T04:50:46.819Z,4.77
2019-02-12T04:51:46.806Z,4.80
2019-02-12T04:52:46.804Z,4.71
2019-02-12T04:53:46.857Z,4.78
2019-02-12T04:54:46.776Z,4.74
2019-02-12T04:55:46.766Z,4.84
2019-02-12T04:56:46.761Z,4.71
2019-02-12T04:57:46.771Z,4.80
2019-02-12T04:58:46.738Z,4.80
2019-02-12T04:59:46.731Z,4.80
2019-02-12T05:00:46.715Z,4.75
2019-02-12T05:01:46.705Z,4.73
2019-02-12T05:02:46.716Z,4.74
2019-02-12T05:03:46.705Z,4.78
2019-02-12T05:04:46.675Z,4.60
2019-02-12T05:05:46.667Z,4.67
2019-02-12T05:06:46.654Z,4.63
2019-02-12T05:07:46.644Z,4.60
2019-02-12T05:08:46.658Z,4.62
2019-02-12T05:09:46.619Z,4.67
2019-02-12T05:10:46.614Z,4.67
2019-02-12T05:11:46.602Z,4.59
2019-02-12T05:12:46.586Z,4.73
2019-02-12T05:13:46.596Z,4.70
2019-02-12T05:14:46.564Z,4.66
2019-02-12T05:15:46.553Z,4.73
2019-02-12T05:16:46.546Z,4.58
2019-02-12T05:17:46.537Z,4.60
2019-02-12T05:18:46.576Z,4.70
2019-02-12T05:19:46.516Z,4.74
2019-02-12T05:20:46.501Z,4.66
2019-02-12T05:21:46.491Z,4.70
2019-02-12T05:22:46.487Z,4.66
2019-02-12T05:23:46.469Z,4.63
2019-02-12T05:24:46.491Z,4.74
2019-02-12T05:25:46.453Z,4.70
2019-02-12T05:26:46.440Z,4.71
2019-02-12T05:27:46.434Z,4.73
2019-02-12T05:28:46.423Z,4.73
2019-02-12T05:29:46.439Z,4.74
2019-02-12T05:30:46.401Z,4.62
2019-02-12T05:31:46.388Z,4.66
2019-02-12T05:32:46.371Z,4.66
2019-02-12T05:33:46.365Z,4.74
2019-02-12T05:34:46.354Z,4.73
2019-02-12T05:35:46.361Z,4.71
2019-02-12T05:36:46.335Z,4.67
2019-02-12T05:37:46.326Z,4.67
2019-02-12T05:38:46.319Z,4.59
2019-02-12T05:39:46.307Z,4.55
2019-02-12T05:40:46.321Z,4.53
2019-02-12T05:41:46.278Z,4.53
2019-02-12T05:42:46.274Z,4.55
2019-02-12T05:43:46.261Z,4.60
2019-02-12T05:44:46.245Z,4.70
2019-02-12T05:45:46.261Z,4.75
2019-02-12T05:46:46.227Z,4.60
2019-02-12T05:47:46.213Z,4.70
2019-02-12T05:48:46.210Z,4.78
2019-02-12T05:49:46.201Z,4.73
2019-02-12T05:50:46.209Z,4.70
2019-02-12T05:51:46.178Z,4.55
2019-02-12T05:52:54.055Z,4.55
2019-02-12T05:53:47.149Z,4.52
2019-02-12T05:54:46.150Z,4.53
2019-02-12T05:55:46.172Z,4.55
2019-02-12T05:56:46.126Z,4.44
2019-02-12T05:57:46.113Z,4.50
2019-02-12T05:58:46.096Z,4.48
2019-02-12T05:59:47.108Z,4.55
2019-02-12T06:00:46.085Z,4.50
2019-02-12T06:01:46.097Z,4.55
2019-02-12T06:02:46.067Z,4.62
2019-02-12T06:03:46.051Z,4.63
2019-02-12T06:04:46.035Z,4.70
2019-02-12T06:05:46.057Z,4.60
2019-02-12T06:06:46.013Z,4.71
2019-02-12T06:07:46.003Z,4.75
2019-02-12T06:08:45.999Z,4.71
2019-02-12T06:09:45.987Z,4.75
2019-02-12T06:10:45.976Z,4.74
2019-02-12T06:11:45.992Z,4.73
2019-02-12T06:12:45.954Z,4.71
2019-02-12T06:13:45.938Z,4.77
2019-02-12T06:14:45.936Z,4.74
2019-02-12T06:15:45.922Z,4.80
2019-02-12T06:16:45.935Z,4.82
2019-02-12T06:17:45.915Z,4.94
2019-02-12T06:18:45.890Z,4.82
2019-02-12T06:19:45.873Z,4.78
2019-02-12T06:20:45.878Z,4.97
2019-02-12T06:21:45.857Z,4.89
2019-02-12T06:22:45.887Z,4.90
2019-02-12T06:23:45.839Z,4.89
2019-02-12T06:24:45.824Z,4.87
2019-02-12T06:25:45.812Z,4.90
2019-02-12T06:26:45.805Z,4.92
2019-02-12T06:27:45.790Z,4.84
2019-02-12T06:28:45.825Z,5.00
2019-02-12T06:29:45.778Z,4.86
2019-02-12T06:30:45.764Z,4.99
2019-02-12T06:31:45.752Z,4.92
2019-02-12T06:32:45.742Z,4.87
2019-02-12T06:33:45.759Z,4.90
2019-02-12T06:34:45.722Z,4.84
2019-02-12T06:35:45.713Z,4.86
2019-02-12T06:36:45.694Z,4.93
2019-02-12T06:37:45.688Z,4.87
2019-02-12T06:38:45.707Z,4.99
2019-02-12T06:39:45.664Z,5.02
2019-02-12T06:40:45.661Z,5.05
2019-02-12T06:41:45.653Z,4.97
2019-02-12T06:42:45.642Z,5.02
2019-02-12T06:43:45.658Z,5.07
2019-02-12T06:44:45.611Z,5.04
2019-02-12T06:45:45.607Z,5.07
2019-02-12T06:46:45.599Z,5.08
2019-02-12T06:47:45.591Z,5.14
2019-02-12T06:48:45.584Z,5.17
2019-02-12T06:49:45.587Z,5.20
2019-02-12T06:50:45.547Z,5.15
2019-02-12T06:51:45.538Z,5.23
2019-02-12T06:52:45.536Z,5.14
2019-02-12T06:53:45.520Z,5.25
2019-02-12T06:54:45.514Z,5.23
2019-02-12T06:55:45.522Z,5.26
2019-02-12T06:56:45.485Z,5.25
2019-02-12T06:57:45.477Z,5.23
2019-02-12T06:58:45.461Z,5.29
2019-02-12T06:59:45.454Z,5.41
2019-02-12T07:00:45.473Z,5.35
2019-02-12T07:01:45.435Z,5.39
2019-02-12T07:02:45.419Z,5.35
2019-02-12T07:03:45.418Z,5.38
2019-02-12T07:04:45.408Z,5.41
2019-02-12T07:05:45.423Z,5.39
2019-02-12T07:06:45.384Z,5.41
2019-02-12T07:07:45.421Z,5.47
2019-02-12T07:08:45.356Z,5.39
2019-02-12T07:09:45.346Z,5.36
2019-02-12T07:10:45.335Z,5.47
2019-02-12T07:11:45.356Z,5.48
2019-02-12T07:12:45.322Z,5.50
2019-02-12T07:13:45.313Z,5.56
2019-02-12T07:14:45.297Z,5.57
2019-02-12T07:15:45.289Z,5.62
2019-02-12T07:16:45.307Z,5.64
2019-02-12T07:17:45.261Z,5.57
2019-02-12T07:18:45.270Z,5.65
2019-02-12T07:19:45.246Z,5.68
2019-02-12T07:20:45.232Z,5.72
2019-02-12T07:21:45.218Z,5.64
2019-02-12T07:22:45.237Z,5.65
2019-02-12T07:23:45.197Z,5.51
2019-02-12T07:24:45.191Z,5.59
2019-02-12T07:25:45.194Z,5.62
2019-02-12T07:26:45.174Z,5.64
2019-02-12T07:27:45.163Z,5.56
2019-02-12T07:28:45.175Z,5.53
2019-02-12T07:29:45.133Z,5.59
2019-02-12T07:30:45.127Z,5.57
2019-02-12T07:31:45.117Z,5.57
2019-02-12T07:32:45.131Z,5.61
2019-02-12T07:33:45.097Z,5.48
2019-02-12T07:34:45.083Z,5.53
2019-02-12T07:35:45.069Z,5.61
2019-02-12T07:36:45.087Z,5.69
2019-02-12T07:37:45.091Z,5.66
2019-02-12T07:38:45.046Z,5.65
2019-02-12T07:39:45.034Z,5.59
2019-02-12T07:40:45.058Z,5.71
2019-02-12T07:41:45.007Z,5.72
2019-02-12T07:42:44.998Z,5.61
2019-02-12T07:43:45.027Z,5.66
2019-02-12T07:44:44.984Z,5.66
2019-02-12T07:45:44.971Z,5.75
2019-02-12T07:46:44.959Z,5.71
2019-02-12T07:47:44.951Z,5.68
2019-02-12T07:48:45.334Z,5.71
2019-02-12T07:49:44.959Z,5.71
2019-02-12T07:50:44.917Z,5.66
2019-02-12T07:51:44.907Z,5.71
2019-02-12T07:52:44.898Z,5.68
2019-02-12T07:53:44.878Z,5.68
2019-02-12T07:54:44.890Z,5.61
2019-02-12T07:55:44.883Z,5.69
2019-02-12T07:56:44.855Z,5.66
2019-02-12T07:57:44.844Z,5.76
2019-02-12T07:58:44.841Z,5.66
2019-02-12T07:59:44.846Z,5.75
2019-02-12T08:00:44.836Z,5.65
2019-02-12T08:01:44.811Z,5.79
2019-02-12T08:02:44.784Z,5.87
2019-02-12T08:03:44.774Z,5.75
2019-02-12T08:04:44.774Z,5.82
2019-02-12T08:05:44.802Z,5.76
2019-02-12T08:06:44.826Z,5.83
2019-02-12T08:07:44.732Z,5.84
2019-02-12T08:08:44.732Z,5.82
2019-02-12T08:09:44.722Z,5.84
2019-02-12T08:10:44.711Z,5.84
2019-02-12T08:11:44.731Z,5.86
2019-02-12T08:12:44.734Z,5.83
2019-02-12T08:13:44.671Z,5.86
2019-02-12T08:14:44.693Z,5.90
2019-02-12T08:15:44.650Z,5.86
2019-02-12T08:16:44.668Z,5.87
2019-02-12T08:17:44.659Z,5.80
2019-02-12T08:18:44.625Z,5.83
2019-02-12T08:19:44.614Z,5.80
2019-02-12T08:20:44.594Z,5.82
2019-02-12T08:21:44.591Z,5.87
2019-02-12T08:22:44.609Z,5.84
2019-02-12T08:23:44.568Z,5.72
2019-02-12T08:24:44.554Z,5.80
2019-02-12T08:25:44.541Z,5.76
2019-02-12T08:26:44.585Z,5.83
2019-02-12T08:27:44.562Z,5.83
2019-02-12T08:28:44.519Z,5.79
2019-02-12T08:29:44.591Z,5.80
2019-02-12T08:30:44.506Z,5.80
2019-02-12T08:31:44.485Z,5.86
2019-02-12T08:32:44.468Z,5.91
2019-02-12T08:33:44.479Z,5.97
2019-02-12T08:34:45.002Z,5.93
2019-02-12T08:35:44.437Z,6.01
2019-02-12T08:36:44.430Z,6.12
2019-02-12T08:37:44.453Z,6.33
2019-02-12T08:38:44.408Z,6.51
2019-02-12T08:39:44.508Z,6.60
2019-02-12T08:40:44.560Z,6.70
2019-02-12T08:41:44.379Z,6.66
2019-02-12T08:42:44.373Z,6.60
2019-02-12T08:43:44.385Z,6.69
2019-02-12T08:44:44.363Z,6.62
2019-02-12T08:45:44.348Z,6.75
2019-02-12T08:46:44.325Z,7.02
2019-02-12T08:47:44.312Z,7.51
2019-02-12T08:48:44.344Z,8.99
2019-02-12T08:49:44.295Z,9.03
2019-02-12T08:50:44.286Z,8.56
2019-02-12T08:51:44.275Z,8.24
2019-02-12T08:52:44.256Z,9.22
2019-02-12T08:53:50.336Z,9.72
2019-02-12T08:54:45.360Z,12.07
2019-02-12T08:55:44.231Z,13.50
2019-02-12T08:56:44.794Z,13.35
2019-02-12T08:57:44.201Z,13.54
2019-02-12T08:58:44.197Z,12.55
2019-02-12T08:59:44.182Z,11.81
2019-02-12T09:00:44.202Z,11.41
2019-02-12T09:01:44.321Z,12.72
2019-02-12T09:02:44.157Z,14.60
2019-02-12T09:03:44.151Z,15.06
2019-02-12T09:04:44.142Z,16.32
2019-02-12T09:05:44.142Z,16.58
2019-02-12T09:06:44.115Z,17.16
2019-02-12T09:07:44.096Z,18.38
2019-02-12T09:08:44.091Z,19.11
2019-02-12T09:09:44.080Z,20.03
2019-02-12T09:10:44.101Z,19.56
2019-02-12T09:11:44.054Z,17.31
2019-02-12T09:12:44.052Z,15.79
2019-02-12T09:13:44.038Z,14.65
2019-02-12T09:14:44.032Z,13.86
2019-02-12T09:15:44.020Z,13.56
2019-02-12T09:16:44.040Z,12.82
2019-02-12T09:17:43.991Z,13.23
2019-02-12T09:18:43.977Z,15.49
2019-02-12T09:19:43.969Z,16.83
2019-02-12T09:20:44.298Z,18.18
2019-02-12T09:21:44.171Z,18.73
2019-02-12T09:22:44.273Z,18.77
2019-02-12T09:23:44.317Z,18.05
2019-02-12T09:24:44.140Z,16.72
2019-02-12T09:25:44.081Z,17.60
2019-02-12T09:26:44.011Z,17.12
2019-02-12T09:27:44.069Z,16.41
2019-02-12T09:28:44.203Z,16.96
2019-02-12T09:29:43.952Z,16.94
2019-02-12T09:30:44.015Z,16.51
2019-02-12T09:31:43.837Z,17.09
2019-02-12T09:32:43.847Z,16.04
2019-02-12T09:33:43.844Z,14.85
2019-02-12T09:34:43.813Z,13.90
2019-02-12T09:35:43.801Z,13.15
2019-02-12T09:36:43.782Z,12.58
2019-02-12T09:37:43.775Z,12.94
2019-02-12T09:38:43.798Z,13.38
2019-02-12T09:39:43.756Z,13.62
2019-02-12T09:40:43.753Z,13.50
2019-02-12T09:41:43.734Z,12.94
2019-02-12T09:42:43.720Z,12.42
2019-02-12T09:43:43.707Z,12.50
2019-02-12T09:44:43.724Z,12.18
2019-02-12T09:45:43.695Z,11.60
2019-02-12T09:46:43.687Z,11.48
2019-02-12T09:47:43.674Z,11.08
2019-02-12T09:48:43.678Z,10.86
2019-02-12T09:49:43.679Z,10.63
2019-02-12T09:50:43.631Z,10.57
2019-02-12T09:51:43.625Z,10.40
2019-02-12T09:52:43.620Z,10.12
2019-02-12T09:53:43.730Z,10.02
2019-02-12T09:54:43.598Z,9.82
2019-02-12T09:55:43.608Z,10.67
2019-02-12T09:56:43.601Z,10.51
2019-02-12T09:57:43.559Z,10.26
2019-02-12T09:58:43.590Z,9.97
2019-02-12T09:59:43.583Z,9.83
2019-02-12T10:00:43.555Z,9.83
2019-02-12T10:01:43.515Z,9.64
2019-02-12T10:02:43.504Z,10.02
2019-02-12T10:03:43.493Z,9.73
2019-02-12T10:04:43.489Z,9.61
2019-02-12T10:05:43.477Z,9.56
2019-02-12T10:06:43.572Z,9.92
2019-02-12T10:07:43.574Z,12.85
2019-02-12T10:08:43.442Z,14.70
2019-02-12T10:09:43.430Z,15.44
2019-02-12T10:10:45.422Z,16.13
2019-02-12T10:11:43.434Z,15.51
2019-02-12T10:12:43.405Z,15.18
2019-02-12T10:13:43.397Z,15.39
2019-02-12T10:14:43.378Z,15.39
2019-02-12T10:15:43.367Z,15.40
2019-02-12T10:16:43.398Z,15.46
2019-02-12T10:17:43.349Z,15.31
2019-02-12T10:18:43.339Z,15.22
2019-02-12T10:19:43.328Z,15.19
2019-02-12T10:20:43.309Z,15.18
2019-02-12T10:21:43.315Z,14.73
2019-02-12T10:22:43.331Z,14.00
2019-02-12T10:23:43.281Z,13.50
2019-02-12T10:24:43.288Z,13.57
2019-02-12T10:25:43.324Z,13.41
2019-02-12T10:26:43.257Z,12.75
2019-02-12T10:27:43.261Z,12.36
2019-02-12T10:28:48.770Z,12.02
2019-02-12T10:29:44.303Z,11.69
2019-02-12T10:30:43.238Z,11.59
2019-02-12T10:31:43.197Z,11.44
2019-02-12T10:32:43.214Z,11.22
2019-02-12T10:33:43.193Z,11.47
2019-02-12T10:34:43.198Z,11.63
2019-02-12T10:35:43.151Z,11.51
2019-02-12T10:36:43.143Z,11.66
2019-02-12T10:37:43.157Z,11.83
2019-02-12T10:38:43.137Z,11.94
2019-02-12T10:39:43.139Z,12.15
2019-02-12T10:40:43.123Z,12.31
2019-02-12T10:41:43.107Z,12.31
2019-02-12T10:42:43.080Z,12.37
2019-02-12T10:43:43.193Z,12.12
2019-02-12T10:44:43.105Z,12.25
2019-02-12T10:45:43.042Z,12.24
2019-02-12T10:46:43.088Z,11.87
2019-02-12T10:47:43.029Z,11.60
2019-02-12T10:48:43.196Z,11.40
2019-02-12T10:49:43.044Z,11.11
2019-02-12T10:50:42.987Z,10.90
2019-02-12T10:51:42.995Z,10.67
2019-02-12T10:52:42.974Z,10.59
2019-02-12T10:53:42.963Z,10.61
2019-02-12T10:54:42.997Z,10.71
2019-02-12T10:55:42.999Z,10.56
2019-02-12T10:56:42.938Z,10.59
2019-02-12T10:57:42.912Z,10.93
2019-02-12T10:58:42.963Z,11.26
2019-02-12T10:59:42.902Z,11.50
2019-02-12T11:00:42.910Z,11.57
2019-02-12T11:01:42.875Z,11.60
2019-02-12T11:02:42.859Z,11.55
2019-02-12T11:03:42.848Z,11.54
2019-02-12T11:04:42.843Z,11.80
2019-02-12T11:05:42.869Z,11.65
2019-02-12T11:06:42.825Z,11.45
2019-02-12T11:07:43.247Z,11.32
2019-02-12T11:08:42.860Z,11.11
2019-02-12T11:09:43.016Z,10.87
2019-02-12T11:10:42.891Z,10.75
2019-02-12T11:11:43.624Z,10.59
2019-02-12T11:12:43.152Z,10.44
2019-02-12T11:13:42.942Z,10.20
2019-02-12T11:14:43.474Z,9.99
2019-02-12T11:15:42.814Z,9.76
2019-02-12T11:16:42.786Z,9.68
2019-02-12T11:17:42.892Z,9.65
2019-02-12T11:18:42.747Z,9.76
2019-02-12T11:19:42.743Z,9.89
2019-02-12T11:20:42.808Z,9.98
2019-02-12T11:21:42.754Z,10.10
2019-02-12T11:22:42.924Z,10.28
2019-02-12T11:23:42.676Z,10.19
2019-02-12T11:24:42.657Z,10.04
2019-02-12T11:25:42.680Z,9.86
2019-02-12T11:26:42.636Z,9.79
2019-02-12T11:27:42.652Z,9.61
2019-02-12T11:28:42.590Z,9.64
2019-02-12T11:29:42.580Z,9.55
2019-02-12T11:30:42.571Z,9.43
2019-02-12T11:31:42.558Z,9.41
2019-02-12T11:32:42.613Z,9.32
2019-02-12T11:33:42.539Z,9.22
2019-02-12T11:34:42.541Z,9.16
2019-02-12T11:35:42.595Z,9.08
2019-02-12T11:36:42.584Z,8.88
2019-02-12T11:37:42.500Z,8.82
2019-02-12T11:38:42.510Z,9.13
2019-02-12T11:39:42.473Z,9.40
2019-02-12T11:40:42.726Z,9.59
2019-02-12T11:41:42.450Z,9.58
2019-02-12T11:42:42.442Z,9.87
2019-02-12T11:43:42.759Z,9.99
2019-02-12T11:44:42.575Z,10.19
2019-02-12T11:45:42.595Z,10.16
2019-02-12T11:46:42.443Z,10.13
2019-02-12T11:47:42.416Z,10.23
2019-02-12T11:48:42.376Z,10.35
2019-02-12T11:49:42.476Z,10.38
2019-02-12T11:50:42.397Z,10.25
2019-02-12T11:51:42.455Z,10.10
2019-02-12T11:52:42.332Z,10.30
2019-02-12T11:53:42.319Z,10.44
2019-02-12T11:54:43.834Z,10.54
2019-02-12T11:55:42.384Z,10.74
2019-02-12T11:56:42.298Z,10.75
2019-02-12T11:57:42.348Z,10.96
2019-02-12T11:58:42.275Z,11.17
2019-02-12T11:59:42.264Z,11.15
2019-02-12T12:00:42.269Z,11.04
2019-02-12T12:01:42.235Z,11.05
2019-02-12T12:02:42.328Z,11.04
2019-02-12T12:03:42.318Z,11.05
2019-02-12T12:04:42.208Z,10.93
2019-02-12T12:05:42.241Z,10.90
2019-02-12T12:06:42.181Z,10.89
2019-02-12T12:07:42.195Z,10.75
2019-02-12T12:08:42.177Z,10.75
2019-02-12T12:09:42.155Z,10.86
2019-02-12T12:10:50.239Z,10.81
2019-02-12T12:11:42.150Z,10.79
2019-02-12T12:12:42.125Z,10.94
2019-02-12T12:13:42.097Z,11.11
2019-02-12T12:14:42.093Z,11.15
2019-02-12T12:15:42.100Z,11.15
2019-02-12T12:16:42.091Z,11.22
2019-02-12T12:17:42.058Z,11.30
2019-02-12T12:18:42.043Z,11.43
2019-02-12T12:19:42.035Z,11.43
2019-02-12T12:20:42.054Z,11.55
2019-02-12T12:21:42.017Z,11.52
2019-02-12T12:22:42.036Z,11.50
2019-02-12T12:23:41.985Z,11.60
2019-02-12T12:24:41.975Z,11.62
2019-02-12T12:25:41.969Z,11.51
2019-02-12T12:26:41.970Z,11.32
2019-02-12T12:27:41.953Z,11.26
2019-02-12T12:28:43.366Z,11.00
2019-02-12T12:29:41.928Z,10.81
2019-02-12T12:30:41.911Z,10.71
2019-02-12T12:31:41.900Z,10.41
2019-02-12T12:32:41.896Z,10.26
2019-02-12T12:33:41.908Z,10.12
2019-02-12T12:34:41.872Z,10.13
2019-02-12T12:35:41.861Z,10.26
2019-02-12T12:36:41.855Z,10.30
2019-02-12T12:37:41.832Z,10.35
2019-02-12T12:38:41.829Z,10.35
2019-02-12T12:39:41.847Z,10.42
2019-02-12T12:40:41.808Z,10.09
2019-02-12T12:41:42.832Z,10.01
2019-02-12T12:42:41.786Z,9.99
2019-02-12T12:43:41.771Z,9.92
2019-02-12T12:44:41.759Z,9.87
2019-02-12T12:45:41.784Z,9.83
2019-02-12T12:46:41.752Z,9.72
2019-02-12T12:47:41.733Z,9.61
2019-02-12T12:48:41.747Z,9.56
2019-02-12T12:49:41.715Z,9.61
2019-02-12T12:50:41.718Z,9.58
2019-02-12T12:51:41.683Z,9.59
2019-02-12T12:52:41.702Z,9.59
2019-02-12T12:53:41.670Z,9.56
2019-02-12T12:54:41.653Z,9.56
2019-02-12T12:55:41.686Z,9.54
2019-02-12T12:56:41.633Z,9.64
2019-02-12T12:57:42.338Z,9.72
2019-02-12T12:58:41.640Z,9.80
2019-02-12T12:59:41.606Z,9.80
2019-02-12T13:00:41.599Z,9.72
2019-02-12T13:01:41.609Z,9.72
2019-02-12T13:02:41.578Z,9.65
2019-02-12T13:03:41.594Z,9.56
2019-02-12T13:04:41.547Z,9.55
2019-02-12T13:05:41.554Z,9.46
2019-02-12T13:06:41.535Z,9.40
2019-02-12T13:07:41.526Z,9.43
2019-02-12T13:08:41.529Z,9.37
2019-02-12T13:09:41.539Z,9.32
2019-02-12T13:10:41.597Z,9.31
2019-02-12T13:11:41.485Z,9.51
2019-02-12T13:12:41.677Z,9.62